Terminal Aerodrome Forecast
Issued by NWS

Home | Current Version | Previous Version | Text Only | Print | Product List | Glossary On
Versions: 1 2 3 4 5 6 7 8 9 10 11 12 13 14
428
FTUS43 KIND 031720
TAFLAF
TAF
KLAF 031720Z 0318/0418 30005KT P6SM OVC030
     FM031900 29005KT P6SM OVC035
     FM041700 14004KT P6SM OVC040=

USA.gov is the U.S. government's official web portal to all federal, state and local government web resources and services.